createdAt,value
2019-03-27T00:00:46.118Z,99.90
2019-03-27T00:03:17.060Z,99.90
2019-03-27T00:05:47.999Z,99.90
2019-03-27T00:08:18.586Z,99.90
2019-03-27T00:10:54.302Z,99.90
2019-03-27T00:18:55.688Z,99.90
2019-03-27T00:21:33.058Z,99.90
2019-03-27T00:27:00.461Z,99.90
2019-03-27T00:29:56.265Z,99.90
2019-03-27T00:32:27.925Z,99.90
2019-03-27T00:35:22.912Z,99.90
2019-03-27T00:37:54.181Z,99.90
2019-03-27T00:40:36.733Z,99.90
2019-03-27T00:43:11.350Z,99.90
2019-03-27T00:45:47.703Z,99.90
2019-03-27T00:48:30.481Z,99.90
2019-03-27T00:51:04.099Z,99.90
2019-03-27T00:53:58.996Z,99.90
2019-03-27T00:56:31.222Z,99.90
2019-03-27T00:59:02.085Z,99.90
2019-03-27T01:01:33.090Z,99.90
2019-03-27T01:04:03.792Z,99.90
2019-03-27T01:06:41.545Z,99.90
2019-03-27T01:09:16.259Z,99.90
2019-03-27T01:11:52.103Z,99.90
2019-03-27T01:14:29.829Z,99.90
2019-03-27T01:17:05.470Z,99.90
2019-03-27T01:19:36.812Z,99.90
2019-03-27T01:22:08.306Z,99.90
2019-03-27T01:24:43.387Z,99.90
2019-03-27T01:27:15.267Z,99.90
2019-03-27T01:29:46.266Z,99.90
2019-03-27T01:32:21.825Z,99.90
2019-03-27T01:35:04.957Z,99.90
2019-03-27T01:37:38.968Z,99.90
2019-03-27T01:40:23.313Z,99.90
2019-03-27T01:43:29.533Z,99.90
2019-03-27T01:46:31.769Z,99.90
2019-03-27T01:49:44.909Z,99.90
2019-03-27T01:52:13.698Z,99.90
2019-03-27T01:54:44.146Z,99.90
2019-03-27T01:57:14.935Z,99.90
2019-03-27T01:59:48.699Z,99.90
2019-03-27T02:02:19.595Z,99.90
2019-03-27T02:04:51.624Z,99.90
2019-03-27T02:07:31.942Z,99.90
2019-03-27T02:10:13.719Z,99.90
2019-03-27T02:12:45.983Z,99.90
2019-03-27T02:15:16.721Z,99.90
2019-03-27T02:17:47.546Z,99.90
2019-03-27T02:20:18.259Z,99.90
2019-03-27T02:23:11.043Z,99.90
2019-03-27T02:26:17.681Z,99.90
2019-03-27T02:37:10.571Z,99.90
2019-03-27T02:39:41.661Z,99.90
2019-03-27T02:42:12.250Z,99.90
2019-03-27T02:44:45.307Z,99.90
2019-03-27T02:47:36.311Z,99.90
2019-03-27T02:50:07.695Z,99.90
2019-03-27T02:52:38.030Z,99.90
2019-03-27T02:55:10.462Z,99.90
2019-03-27T02:57:40.859Z,99.90
2019-03-27T03:00:12.104Z,99.90
2019-03-27T03:02:45.821Z,99.90
2019-03-27T03:05:17.441Z,99.90
2019-03-27T03:07:48.043Z,99.90
2019-03-27T03:10:23.937Z,99.90
2019-03-27T03:12:54.323Z,99.90
2019-03-27T03:15:28.521Z,99.90
2019-03-27T03:17:59.135Z,99.90
2019-03-27T03:20:39.315Z,99.90
2019-03-27T03:23:10.229Z,99.90
2019-03-27T03:25:44.412Z,99.90
2019-03-27T03:28:16.702Z,99.90
2019-03-27T03:33:35.362Z,99.90
2019-03-27T03:36:10.688Z,99.90
2019-03-27T03:38:42.821Z,99.90
2019-03-27T03:41:16.511Z,99.90
2019-03-27T03:43:48.108Z,99.90
2019-03-27T03:46:21.141Z,99.90
2019-03-27T03:48:55.878Z,99.90
2019-03-27T03:51:26.778Z,99.90
2019-03-27T03:53:57.780Z,99.90
2019-03-27T03:59:17.292Z,99.90
2019-03-27T04:01:48.693Z,99.90
2019-03-27T04:04:22.063Z,99.90
2019-03-27T04:06:54.200Z,99.90
2019-03-27T04:09:25.588Z,99.90
2019-03-27T04:11:55.890Z,99.90
2019-03-27T04:14:27.706Z,99.90
2019-03-27T04:16:58.076Z,99.90
2019-03-27T04:19:45.235Z,99.90
2019-03-27T04:22:09.380Z,99.90
2019-03-27T04:24:40.470Z,99.90
2019-03-27T04:27:22.157Z,99.90
2019-03-27T04:29:59.877Z,99.90
2019-03-27T04:32:37.659Z,99.90
2019-03-27T04:35:19.013Z,99.90
2019-03-27T04:37:55.637Z,99.90
2019-03-27T04:40:30.037Z,99.90
2019-03-27T04:45:47.921Z,99.90
2019-03-27T04:48:18.539Z,99.90
2019-03-27T04:50:49.118Z,99.90
2019-03-27T04:53:19.776Z,99.90
2019-03-27T04:55:52.535Z,99.90
2019-03-27T04:58:49.766Z,99.90
2019-03-27T05:01:53.752Z,99.90
2019-03-27T05:04:39.269Z,99.90
2019-03-27T05:07:13.886Z,99.90
2019-03-27T05:09:53.787Z,99.90
2019-03-27T05:12:26.636Z,99.90
2019-03-27T05:14:59.652Z,99.90
2019-03-27T05:17:45.305Z,99.90
2019-03-27T05:20:16.390Z,99.90
2019-03-27T05:22:46.940Z,99.90
2019-03-27T05:25:31.490Z,99.90
2019-03-27T05:28:02.666Z,99.90
2019-03-27T05:30:39.626Z,99.90
2019-03-27T05:33:18.177Z,99.90
2019-03-27T05:36:04.362Z,99.90
2019-03-27T05:38:37.488Z,99.90
2019-03-27T05:41:23.438Z,99.90
2019-03-27T05:43:55.078Z,99.90
2019-03-27T05:46:27.313Z,99.90
2019-03-27T05:48:57.337Z,99.90
2019-03-27T05:51:27.413Z,99.90
2019-03-27T05:53:59.692Z,99.90
2019-03-27T05:56:30.518Z,99.90
2019-03-27T05:59:09.477Z,99.90
2019-03-27T06:01:44.306Z,99.90
2019-03-27T06:04:14.848Z,99.90
2019-03-27T06:06:46.420Z,99.90
2019-03-27T06:09:23.351Z,99.90
2019-03-27T06:12:02.841Z,99.90
2019-03-27T06:14:53.500Z,99.90
2019-03-27T06:17:23.948Z,99.90
2019-03-27T06:19:58.044Z,99.90
2019-03-27T06:22:35.524Z,99.90
2019-03-27T06:27:46.220Z,99.90
2019-03-27T06:30:34.215Z,99.90
2019-03-27T06:33:07.327Z,99.90
2019-03-27T06:35:42.362Z,99.90
2019-03-27T06:38:17.758Z,99.90
2019-03-27T06:41:28.627Z,99.90
2019-03-27T06:44:01.175Z,99.90
2019-03-27T06:46:32.019Z,99.90
2019-03-27T06:49:03.303Z,99.90
2019-03-27T06:51:39.904Z,99.90
2019-03-27T06:54:11.040Z,99.90
2019-03-27T06:57:49.543Z,99.90
2019-03-27T07:00:05.430Z,99.90
2019-03-27T07:04:09.372Z,99.90
2019-03-27T07:09:09.140Z,99.90
2019-03-27T07:11:45.778Z,99.90
2019-03-27T07:14:35.642Z,99.90
2019-03-27T07:34:00.958Z,99.90
2019-03-27T07:37:53.777Z,99.90
2019-03-27T07:39:37.022Z,99.90
2019-03-27T07:45:31.454Z,99.90
2019-03-27T07:48:03.749Z,99.90
2019-03-27T07:50:55.596Z,99.90
2019-03-27T07:58:16.023Z,99.90
2019-03-27T08:04:27.331Z,99.90
2019-03-27T08:23:27.016Z,99.90
2019-03-27T08:26:00.819Z,99.90
2019-03-27T08:28:31.394Z,99.90
2019-03-27T08:31:01.797Z,99.90
2019-03-27T08:33:33.885Z,99.90
2019-03-27T08:36:07.447Z,99.90
2019-03-27T08:38:40.635Z,99.90
2019-03-27T08:41:12.249Z,99.90
2019-03-27T08:43:44.459Z,99.90
2019-03-27T08:46:15.066Z,99.90
2019-03-27T08:48:45.808Z,99.90
2019-03-27T08:51:16.500Z,99.90
2019-03-27T08:53:47.065Z,99.90
2019-03-27T08:56:37.774Z,99.90
2019-03-27T08:59:07.955Z,99.90
2019-03-27T09:01:38.911Z,99.90
2019-03-27T09:04:09.109Z,99.90
2019-03-27T09:06:40.102Z,99.90
2019-03-27T09:09:11.787Z,99.90
2019-03-27T09:11:42.268Z,99.90
2019-03-27T09:14:12.605Z,99.90
2019-03-27T09:16:42.694Z,99.90
2019-03-27T09:19:12.816Z,99.90
2019-03-27T09:21:43.133Z,99.90
2019-03-27T09:24:13.584Z,99.90
2019-03-27T09:26:44.448Z,99.90
2019-03-27T09:29:15.183Z,99.90
2019-03-27T09:31:45.820Z,99.90
2019-03-27T09:34:17.823Z,99.90
2019-03-27T09:36:49.075Z,99.90
2019-03-27T09:39:19.948Z,99.90
2019-03-27T09:41:50.129Z,99.90
2019-03-27T09:44:22.169Z,99.90
2019-03-27T09:46:53.187Z,99.90
2019-03-27T09:49:23.668Z,99.90
2019-03-27T09:51:54.431Z,99.90
2019-03-27T09:54:25.303Z,99.90
2019-03-27T09:56:55.536Z,99.90
2019-03-27T09:59:25.544Z,99.90
2019-03-27T10:01:56.245Z,99.90
2019-03-27T10:04:26.747Z,99.90
2019-03-27T10:06:56.976Z,99.90
2019-03-27T10:09:27.483Z,99.90
2019-03-27T10:11:57.385Z,99.90
2019-03-27T10:14:27.677Z,99.90
2019-03-27T10:16:57.772Z,99.90
2019-03-27T10:19:28.313Z,99.90
2019-03-27T10:21:58.371Z,99.90
2019-03-27T10:24:28.395Z,99.90
2019-03-27T10:26:58.321Z,99.90
2019-03-27T10:29:28.703Z,99.90
2019-03-27T10:31:58.738Z,99.90
2019-03-27T10:34:30.986Z,99.90
2019-03-27T10:37:02.756Z,99.90
2019-03-27T10:39:36.325Z,99.90
2019-03-27T10:42:07.289Z,99.90
2019-03-27T10:44:42.342Z,99.90
2019-03-27T10:47:16.802Z,99.90
2019-03-27T10:49:49.680Z,99.90
2019-03-27T10:52:20.934Z,99.90
2019-03-27T10:54:50.867Z,99.90
2019-03-27T10:57:22.591Z,99.90
2019-03-27T10:59:53.247Z,99.90
2019-03-27T11:02:23.799Z,99.90
2019-03-27T11:04:54.142Z,99.90
2019-03-27T11:07:24.335Z,99.90
2019-03-27T11:09:55.518Z,99.90
2019-03-27T11:12:26.065Z,99.90
2019-03-27T11:14:56.601Z,99.90
2019-03-27T11:17:27.193Z,99.90
2019-03-27T11:19:57.786Z,99.90
2019-03-27T11:22:28.247Z,99.90
2019-03-27T11:24:58.634Z,99.90
2019-03-27T11:27:31.191Z,99.90
2019-03-27T11:30:02.397Z,99.90
2019-03-27T11:32:37.268Z,99.90
2019-03-27T11:35:08.115Z,99.90
2019-03-27T11:37:40.505Z,99.90
2019-03-27T11:40:11.612Z,99.90
2019-03-27T11:42:41.878Z,99.90
2019-03-27T11:45:14.730Z,99.90
2019-03-27T11:47:45.949Z,99.90
2019-03-27T11:50:16.455Z,99.90
2019-03-27T12:06:02.808Z,99.90
2019-03-27T12:08:33.349Z,99.90
2019-03-27T12:11:03.634Z,99.90
2019-03-27T12:13:34.084Z,99.90
2019-03-27T12:16:04.079Z,99.90
2019-03-27T12:18:34.338Z,99.90
2019-03-27T12:21:04.545Z,99.90
2019-03-27T12:23:35.027Z,99.90
2019-03-27T12:26:05.045Z,99.90
2019-03-27T12:28:35.474Z,99.90
2019-03-27T12:31:05.881Z,99.90
2019-03-27T12:33:36.520Z,99.90
2019-03-27T12:36:09.446Z,99.90
2019-03-27T12:41:23.144Z,99.90
2019-03-27T12:43:53.238Z,99.90
2019-03-27T12:46:24.710Z,99.90
2019-03-27T12:48:54.944Z,99.90
2019-03-27T12:51:25.576Z,99.90
2019-03-27T12:53:56.148Z,99.90
2019-03-27T12:56:26.767Z,99.90
2019-03-27T12:58:57.090Z,99.90
2019-03-27T13:01:27.647Z,99.90
2019-03-27T13:03:57.713Z,99.90
2019-03-27T13:06:27.760Z,99.90
2019-03-27T13:09:02.963Z,99.90
2019-03-27T13:14:10.014Z,99.90
2019-03-27T13:16:40.703Z,99.90
2019-03-27T13:19:11.470Z,99.90
2019-03-27T13:21:45.244Z,99.90
2019-03-27T13:24:24.795Z,99.90
2019-03-27T13:27:00.295Z,99.90
2019-03-27T13:29:41.964Z,99.90
2019-03-27T13:32:13.272Z,99.90
2019-03-27T13:34:53.150Z,99.90
2019-03-27T13:37:25.794Z,99.90
2019-03-27T13:39:59.861Z,99.90
2019-03-27T13:42:31.467Z,99.90
2019-03-27T13:45:04.447Z,99.90
2019-03-27T13:47:35.247Z,99.90
2019-03-27T13:53:07.998Z,99.90
2019-03-27T13:55:39.650Z,99.90
2019-03-27T13:58:13.798Z,99.90
2019-03-27T14:00:46.395Z,99.90
2019-03-27T14:03:26.082Z,99.90
2019-03-27T14:05:56.612Z,99.90
2019-03-27T14:08:29.784Z,99.90
2019-03-27T14:11:00.654Z,99.90
2019-03-27T14:13:30.900Z,99.90
2019-03-27T14:16:01.043Z,99.90
2019-03-27T14:18:32.423Z,99.90
2019-03-27T14:21:02.645Z,99.90
2019-03-27T14:23:33.172Z,99.90
2019-03-27T14:26:04.123Z,98.90
2019-03-27T14:28:37.011Z,99.20
2019-03-27T14:31:13.980Z,97.80
2019-03-27T14:33:45.078Z,97.80
2019-03-27T14:36:15.504Z,97.60
2019-03-27T14:38:46.081Z,97.50
2019-03-27T14:41:17.183Z,97.60
2019-03-27T14:43:48.125Z,97.50
2019-03-27T14:46:18.718Z,97.10
2019-03-27T14:48:49.193Z,97.10
2019-03-27T14:51:19.634Z,97.00
2019-03-27T14:53:51.018Z,96.90
2019-03-27T14:56:21.609Z,97.40
2019-03-27T14:58:52.860Z,96.00
2019-03-27T15:01:23.062Z,96.60
2019-03-27T15:03:53.807Z,96.20
2019-03-27T15:06:24.213Z,96.40
2019-03-27T15:08:54.921Z,96.90
2019-03-27T15:11:25.856Z,97.20
2019-03-27T15:13:58.992Z,97.10
2019-03-27T15:16:30.030Z,97.50
2019-03-27T15:19:00.067Z,97.30
2019-03-27T15:21:33.184Z,96.90
2019-03-27T15:24:03.703Z,97.60
2019-03-27T15:26:34.971Z,97.70
2019-03-27T15:29:05.604Z,97.60
2019-03-27T15:31:46.935Z,97.90
2019-03-27T15:34:18.738Z,97.70
2019-03-27T15:36:50.002Z,98.10
2019-03-27T15:39:20.551Z,98.20
2019-03-27T15:41:59.387Z,97.90
2019-03-27T15:44:29.928Z,98.20
2019-03-27T15:47:00.208Z,99.90
2019-03-27T15:49:30.392Z,99.70
2019-03-27T15:52:02.106Z,98.80
2019-03-27T15:54:32.321Z,99.20
2019-03-27T15:57:03.174Z,99.50
2019-03-27T15:59:34.655Z,99.40
2019-03-27T16:02:09.712Z,99.80
2019-03-27T16:04:41.200Z,99.90
2019-03-27T16:10:41.759Z,99.70
2019-03-27T16:13:13.170Z,99.90
2019-03-27T16:15:45.647Z,99.90
2019-03-27T16:18:16.954Z,99.40
2019-03-27T16:20:49.654Z,99.50
2019-03-27T16:23:46.955Z,99.60
2019-03-27T16:26:22.759Z,99.50
2019-03-27T16:28:53.059Z,98.90
2019-03-27T16:31:23.294Z,98.90
2019-03-27T16:33:54.068Z,98.80
2019-03-27T16:36:24.857Z,98.70
2019-03-27T16:38:55.406Z,98.70
2019-03-27T16:41:27.598Z,98.70
2019-03-27T16:43:58.548Z,98.80
2019-03-27T16:46:29.037Z,98.70
2019-03-27T16:49:00.302Z,98.40
2019-03-27T16:51:30.698Z,98.70
2019-03-27T16:54:01.742Z,98.50
2019-03-27T16:56:33.032Z,98.40
2019-03-27T16:59:03.035Z,98.30
2019-03-27T17:01:33.683Z,98.60
2019-03-27T17:04:04.104Z,98.70
2019-03-27T17:06:34.693Z,98.60
2019-03-27T17:09:06.893Z,98.60
2019-03-27T17:11:37.896Z,98.60
2019-03-27T17:14:08.150Z,98.70
2019-03-27T17:16:38.399Z,99.00
2019-03-27T17:19:08.892Z,98.90
2019-03-27T17:21:39.784Z,98.70
2019-03-27T17:24:11.984Z,98.90
2019-03-27T17:26:43.079Z,98.90
2019-03-27T17:29:13.187Z,98.90
2019-03-27T17:55:00.391Z,99.90
2019-03-27T17:57:34.630Z,99.90
2019-03-27T18:02:48.543Z,99.70
2019-03-27T18:05:39.555Z,99.80
2019-03-27T18:08:10.449Z,99.90
2019-03-27T18:10:47.724Z,99.90
2019-03-27T18:13:18.050Z,99.90
2019-03-27T18:21:06.651Z,99.90
2019-03-27T18:23:45.707Z,99.90
2019-03-27T18:26:16.249Z,99.90
2019-03-27T18:28:47.220Z,99.90
2019-03-27T18:31:33.227Z,99.90
2019-03-27T18:34:03.721Z,99.90
2019-03-27T18:36:36.996Z,99.90
2019-03-27T18:39:09.137Z,99.90
2019-03-27T18:41:40.516Z,99.90
2019-03-27T18:44:11.386Z,99.90
2019-03-27T18:49:29.104Z,99.90
2019-03-27T18:51:59.327Z,99.90
2019-03-27T18:54:29.804Z,99.90
2019-03-27T18:57:00.067Z,99.90
2019-03-27T19:04:05.857Z,99.90
2019-03-27T19:06:42.170Z,99.90
2019-03-27T19:09:17.817Z,99.90
2019-03-27T19:11:53.430Z,99.90
2019-03-27T19:14:21.245Z,99.90
2019-03-27T19:17:13.003Z,99.90
2019-03-27T19:20:10.425Z,99.90
2019-03-27T19:27:08.858Z,99.90
2019-03-27T19:30:55.198Z,99.90
2019-03-27T19:33:58.112Z,99.90
2019-03-27T19:40:17.218Z,99.90
2019-03-27T19:43:21.893Z,99.90
2019-03-27T19:46:36.097Z,99.90
2019-03-27T19:49:09.130Z,99.90
2019-03-27T19:52:21.312Z,99.90
2019-03-27T19:58:45.759Z,99.90
2019-03-27T20:01:22.894Z,99.90
2019-03-27T20:03:53.436Z,99.90
2019-03-27T20:06:31.869Z,99.90
2019-03-27T20:09:08.838Z,99.90
2019-03-27T20:12:12.583Z,99.90
2019-03-27T20:19:22.551Z,99.90
2019-03-27T20:22:31.700Z,99.90
2019-03-27T20:34:50.561Z,99.90
2019-03-27T20:37:37.953Z,99.90
2019-03-27T20:40:33.577Z,99.90
2019-03-27T20:59:58.072Z,99.90
2019-03-27T21:02:28.830Z,99.90
2019-03-27T21:05:02.391Z,99.90
2019-03-27T21:07:33.462Z,99.90
2019-03-27T21:10:16.837Z,99.90
2019-03-27T21:13:22.008Z,99.90
2019-03-27T21:16:21.710Z,99.90
2019-03-27T21:23:37.816Z,99.90
2019-03-27T21:26:57.391Z,99.90
2019-03-27T21:30:04.170Z,99.90
2019-03-27T21:32:49.022Z,99.90
2019-03-27T21:35:43.237Z,99.90
2019-03-27T21:38:19.508Z,99.90
2019-03-27T21:41:11.719Z,99.90
2019-03-27T21:43:43.248Z,99.90
2019-03-27T21:46:33.233Z,99.90
2019-03-27T21:57:38.708Z,99.90
2019-03-27T22:00:10.396Z,99.90
2019-03-27T22:02:47.157Z,99.90
2019-03-27T22:05:38.509Z,99.90
2019-03-27T22:08:11.558Z,99.90
2019-03-27T22:10:49.154Z,99.90
2019-03-27T22:21:49.445Z,99.90
2019-03-27T22:24:54.099Z,99.90
2019-03-27T22:33:15.985Z,99.90
2019-03-27T22:35:54.221Z,99.90
2019-03-27T22:38:25.103Z,99.90
2019-03-27T22:41:03.108Z,99.90
2019-03-27T22:43:49.282Z,99.90
2019-03-27T22:46:21.392Z,99.90
2019-03-27T22:48:53.783Z,99.90
2019-03-27T22:51:24.299Z,99.90
2019-03-27T22:53:57.342Z,99.90
2019-03-27T22:56:28.966Z,99.90
2019-03-27T22:58:59.365Z,99.90
2019-03-27T23:01:40.627Z,99.90
2019-03-27T23:04:59.011Z,99.90
2019-03-27T23:07:30.564Z,99.90
2019-03-27T23:10:11.352Z,99.90
2019-03-27T23:12:47.761Z,99.90
2019-03-27T23:15:21.687Z,99.90
2019-03-27T23:18:05.793Z,99.90
2019-03-27T23:20:58.997Z,99.90
2019-03-27T23:23:31.249Z,99.90
2019-03-27T23:26:03.698Z,99.90
2019-03-27T23:28:38.284Z,99.90
2019-03-27T23:31:20.541Z,99.90
2019-03-27T23:36:38.732Z,99.90
2019-03-27T23:39:10.087Z,99.90
2019-03-27T23:41:46.157Z,99.90
2019-03-27T23:47:06.306Z,99.90
2019-03-27T23:49:40.145Z,99.90
2019-03-27T23:52:11.193Z,99.90
2019-03-27T23:54:41.794Z,99.90
2019-03-27T23:57:12.344Z,99.90
2019-03-27T23:59:44.469Z,99.90
